CheckWX is a tool to help pilots better visualize weather data.  It is not intended as a substitute for an official pre-flight weather briefing.

00:53:41 UTC

CWHN METAR
Jimmy Lake Airport
Jimmy Lake, Canada
Current

54 mins ago

CWHN 240000Z AUTO 06010KT 9SM CLR 06/M05 A3024 RMK SLP268
Observed
Mar-24 @ 00:00 UTC
Wind
  • 060° at 10 KTS
Visibility
9 SM
Flight Rules
VFR
Cloud Levels
  • Clear skies
Temperature
C / 43°F
Dewpoint
-5°C / 23°F
Humidity
46%
Altimeter
30.24" Hg
Pressure
1026.8 hPa
Previous

2 hours ago

CWHN 232300Z AUTO 06010G15KT 020V090 9SM CLR 08/M04 A3022 RMK SLP259
Observed
Mar-23 @ 23:00 UTC
Wind
  • 060° at 10 KTS
  • Gusting to 15 KTS
Visibility
9 SM
Flight Rules
VFR
Cloud Levels
  • Clear skies
Temperature
C / 46°F
Dewpoint
-4°C / 25°F
Humidity
43%
Altimeter
30.22" Hg
Pressure
1025.9 hPa
Previous

3 hours ago

CWHN 232200Z AUTO 05013KT 030V090 9SM CLR 09/M04 A3019 RMK SLP248
Observed
Mar-23 @ 22:00 UTC
Wind
  • 050° at 13 KTS
Visibility
9 SM
Flight Rules
VFR
Cloud Levels
  • Clear skies
Temperature
C / 48°F
Dewpoint
-4°C / 25°F
Humidity
40%
Altimeter
30.19" Hg
Pressure
1024.8 hPa